sensor_id;sensor_type;location;lat;lon;timestamp;P1;durP1;ratioP1;P2;durP2;ratioP2
42124;SDS011;27787;44.594;11.046;2022-09-09T00:00:46;6.13;;;3.35;;
42124;SDS011;27787;44.594;11.046;2022-09-09T00:03:40;7.75;;;3.88;;
42124;SDS011;27787;44.594;11.046;2022-09-09T00:06:43;7.53;;;3.67;;
42124;SDS011;27787;44.594;11.046;2022-09-09T00:09:31;7.15;;;3.17;;
42124;SDS011;27787;44.594;11.046;2022-09-09T00:15:21;8.82;;;4.45;;
42124;SDS011;27787;44.594;11.046;2022-09-09T00:21:08;12.32;;;3.90;;
42124;SDS011;27787;44.594;11.046;2022-09-09T00:23:56;7.65;;;4.50;;
42124;SDS011;27787;44.594;11.046;2022-09-09T00:26:47;9.65;;;3.25;;
42124;SDS011;27787;44.594;11.046;2022-09-09T00:29:36;8.43;;;3.88;;
42124;SDS011;27787;44.594;11.046;2022-09-09T00:32:29;10.50;;;4.05;;
42124;SDS011;27787;44.594;11.046;2022-09-09T00:35:23;9.43;;;4.03;;
42124;SDS011;27787;44.594;11.046;2022-09-09T00:38:16;9.68;;;3.70;;
42124;SDS011;27787;44.594;11.046;2022-09-09T00:41:15;7.50;;;3.95;;
42124;SDS011;27787;44.594;11.046;2022-09-09T00:53:39;8.32;;;4.22;;
42124;SDS011;27787;44.594;11.046;2022-09-09T01:12:09;8.73;;;3.90;;
42124;SDS011;27787;44.594;11.046;2022-09-09T01:15:03;10.02;;;4.82;;
42124;SDS011;27787;44.594;11.046;2022-09-09T01:24:04;13.82;;;4.82;;
42124;SDS011;27787;44.594;11.046;2022-09-09T01:27:18;7.60;;;3.80;;
42124;SDS011;27787;44.594;11.046;2022-09-09T01:30:13;5.72;;;4.10;;
42124;SDS011;27787;44.594;11.046;2022-09-09T01:33:00;9.70;;;4.47;;
42124;SDS011;27787;44.594;11.046;2022-09-09T01:38:49;7.93;;;4.30;;
42124;SDS011;27787;44.594;11.046;2022-09-09T01:41:35;12.85;;;4.78;;
42124;SDS011;27787;44.594;11.046;2022-09-09T01:44:23;8.10;;;5.40;;
42124;SDS011;27787;44.594;11.046;2022-09-09T01:47:09;8.00;;;4.80;;
42124;SDS011;27787;44.594;11.046;2022-09-09T01:50:07;11.73;;;4.53;;
42124;SDS011;27787;44.594;11.046;2022-09-09T01:52:56;11.23;;;4.60;;
42124;SDS011;27787;44.594;11.046;2022-09-09T01:55:55;8.25;;;4.63;;
42124;SDS011;27787;44.594;11.046;2022-09-09T01:59:03;10.95;;;5.18;;
42124;SDS011;27787;44.594;11.046;2022-09-09T02:02:17;9.30;;;4.20;;
42124;SDS011;27787;44.594;11.046;2022-09-09T02:11:28;7.15;;;4.00;;
42124;SDS011;27787;44.594;11.046;2022-09-09T02:14:25;10.23;;;4.57;;
42124;SDS011;27787;44.594;11.046;2022-09-09T02:17:19;8.57;;;3.90;;
42124;SDS011;27787;44.594;11.046;2022-09-09T02:20:16;14.13;;;4.25;;
42124;SDS011;27787;44.594;11.046;2022-09-09T02:23:14;6.55;;;3.90;;
42124;SDS011;27787;44.594;11.046;2022-09-09T02:26:02;7.68;;;4.40;;
42124;SDS011;27787;44.594;11.046;2022-09-09T02:31:34;12.15;;;5.22;;
42124;SDS011;27787;44.594;11.046;2022-09-09T02:34:25;12.82;;;5.35;;
42124;SDS011;27787;44.594;11.046;2022-09-09T02:37:11;9.15;;;4.82;;
42124;SDS011;27787;44.594;11.046;2022-09-09T02:40:03;10.20;;;4.82;;
42124;SDS011;27787;44.594;11.046;2022-09-09T02:42:51;9.98;;;4.65;;
42124;SDS011;27787;44.594;11.046;2022-09-09T02:45:41;11.18;;;5.32;;
42124;SDS011;27787;44.594;11.046;2022-09-09T02:51:44;11.13;;;4.90;;
42124;SDS011;27787;44.594;11.046;2022-09-09T02:54:31;9.40;;;4.97;;
42124;SDS011;27787;44.594;11.046;2022-09-09T02:57:23;11.25;;;5.32;;
42124;SDS011;27787;44.594;11.046;2022-09-09T03:00:15;12.25;;;5.90;;
42124;SDS011;27787;44.594;11.046;2022-09-09T03:02:59;9.85;;;5.70;;
42124;SDS011;27787;44.594;11.046;2022-09-09T03:05:44;13.50;;;5.82;;
42124;SDS011;27787;44.594;11.046;2022-09-09T03:08:29;11.88;;;5.43;;
42124;SDS011;27787;44.594;11.046;2022-09-09T03:11:15;12.93;;;6.00;;
42124;SDS011;27787;44.594;11.046;2022-09-09T03:14:01;9.88;;;5.80;;
42124;SDS011;27787;44.594;11.046;2022-09-09T03:16:48;9.82;;;6.20;;
42124;SDS011;27787;44.594;11.046;2022-09-09T03:19:33;12.93;;;6.17;;
42124;SDS011;27787;44.594;11.046;2022-09-09T03:22:19;14.27;;;6.00;;
42124;SDS011;27787;44.594;11.046;2022-09-09T03:30:38;11.70;;;5.88;;
42124;SDS011;27787;44.594;11.046;2022-09-09T03:33:23;11.30;;;6.18;;
42124;SDS011;27787;44.594;11.046;2022-09-09T03:36:08;14.87;;;6.57;;
42124;SDS011;27787;44.594;11.046;2022-09-09T03:38:53;11.63;;;5.38;;
42124;SDS011;27787;44.594;11.046;2022-09-09T03:41:43;9.00;;;5.32;;
42124;SDS011;27787;44.594;11.046;2022-09-09T03:44:31;8.38;;;5.25;;
42124;SDS011;27787;44.594;11.046;2022-09-09T03:47:16;13.65;;;5.22;;
42124;SDS011;27787;44.594;11.046;2022-09-09T03:50:02;4.90;;;3.55;;
42124;SDS011;27787;44.594;11.046;2022-09-09T03:52:48;6.35;;;3.15;;
42124;SDS011;27787;44.594;11.046;2022-09-09T03:55:38;10.80;;;3.30;;
42124;SDS011;27787;44.594;11.046;2022-09-09T03:58:22;5.03;;;3.23;;
42124;SDS011;27787;44.594;11.046;2022-09-09T04:01:14;9.07;;;3.55;;
42124;SDS011;27787;44.594;11.046;2022-09-09T04:04:01;8.13;;;3.22;;
42124;SDS011;27787;44.594;11.046;2022-09-09T04:06:46;14.65;;;3.65;;
42124;SDS011;27787;44.594;11.046;2022-09-09T04:09:32;6.55;;;3.38;;
42124;SDS011;27787;44.594;11.046;2022-09-09T04:12:16;6.77;;;3.07;;
42124;SDS011;27787;44.594;11.046;2022-09-09T04:17:46;6.82;;;3.05;;
42124;SDS011;27787;44.594;11.046;2022-09-09T04:20:31;11.18;;;3.38;;
42124;SDS011;27787;44.594;11.046;2022-09-09T04:23:15;6.70;;;3.33;;
42124;SDS011;27787;44.594;11.046;2022-09-09T04:26:00;5.90;;;3.30;;
42124;SDS011;27787;44.594;11.046;2022-09-09T04:28:46;11.90;;;3.20;;
42124;SDS011;27787;44.594;11.046;2022-09-09T04:31:34;13.23;;;3.55;;
42124;SDS011;27787;44.594;11.046;2022-09-09T04:34:19;5.40;;;3.42;;
42124;SDS011;27787;44.594;11.046;2022-09-09T04:37:03;11.23;;;3.67;;
42124;SDS011;27787;44.594;11.046;2022-09-09T04:39:48;14.30;;;4.38;;
42124;SDS011;27787;44.594;11.046;2022-09-09T04:42:35;5.50;;;3.47;;
42124;SDS011;27787;44.594;11.046;2022-09-09T04:45:20;5.18;;;3.20;;
42124;SDS011;27787;44.594;11.046;2022-09-09T04:48:04;7.88;;;3.75;;
42124;SDS011;27787;44.594;11.046;2022-09-09T04:53:40;6.00;;;3.50;;
42124;SDS011;27787;44.594;11.046;2022-09-09T04:56:24;6.95;;;3.47;;
42124;SDS011;27787;44.594;11.046;2022-09-09T04:59:14;7.43;;;3.03;;
42124;SDS011;27787;44.594;11.046;2022-09-09T05:02:05;8.95;;;2.53;;
42124;SDS011;27787;44.594;11.046;2022-09-09T05:04:50;5.53;;;2.83;;
42124;SDS011;27787;44.594;11.046;2022-09-09T05:07:35;4.43;;;2.25;;
42124;SDS011;27787;44.594;11.046;2022-09-09T05:10:20;4.67;;;2.67;;
42124;SDS011;27787;44.594;11.046;2022-09-09T05:13:06;6.65;;;2.42;;
42124;SDS011;27787;44.594;11.046;2022-09-09T05:15:51;7.53;;;2.42;;
42124;SDS011;27787;44.594;11.046;2022-09-09T05:18:40;10.95;;;3.45;;
42124;SDS011;27787;44.594;11.046;2022-09-09T05:21:26;6.47;;;2.35;;
42124;SDS011;27787;44.594;11.046;2022-09-09T05:26:57;8.52;;;2.90;;
42124;SDS011;27787;44.594;11.046;2022-09-09T05:29:43;6.57;;;2.78;;
42124;SDS011;27787;44.594;11.046;2022-09-09T05:32:29;5.05;;;2.05;;
42124;SDS011;27787;44.594;11.046;2022-09-09T05:35:16;5.70;;;2.50;;
42124;SDS011;27787;44.594;11.046;2022-09-09T05:38:03;5.53;;;2.38;;
42124;SDS011;27787;44.594;11.046;2022-09-09T05:40:48;4.95;;;2.70;;
42124;SDS011;27787;44.594;11.046;2022-09-09T05:43:34;12.90;;;2.55;;
42124;SDS011;27787;44.594;11.046;2022-09-09T05:46:21;8.48;;;2.55;;
42124;SDS011;27787;44.594;11.046;2022-09-09T05:49:10;7.90;;;2.78;;
42124;SDS011;27787;44.594;11.046;2022-09-09T05:51:55;8.13;;;2.90;;
42124;SDS011;27787;44.594;11.046;2022-09-09T05:57:28;8.98;;;2.38;;
42124;SDS011;27787;44.594;11.046;2022-09-09T06:00:12;5.85;;;2.55;;
42124;SDS011;27787;44.594;11.046;2022-09-09T06:03:00;4.93;;;2.33;;
42124;SDS011;27787;44.594;11.046;2022-09-09T06:05:45;8.05;;;2.38;;
42124;SDS011;27787;44.594;11.046;2022-09-09T06:08:29;7.80;;;2.90;;
42124;SDS011;27787;44.594;11.046;2022-09-09T06:11:14;3.75;;;2.10;;
42124;SDS011;27787;44.594;11.046;2022-09-09T06:14:00;4.78;;;2.92;;
42124;SDS011;27787;44.594;11.046;2022-09-09T06:16:47;6.63;;;2.35;;
42124;SDS011;27787;44.594;11.046;2022-09-09T06:19:38;8.10;;;2.70;;
42124;SDS011;27787;44.594;11.046;2022-09-09T06:22:22;6.22;;;3.53;;
42124;SDS011;27787;44.594;11.046;2022-09-09T06:25:07;6.20;;;3.35;;
42124;SDS011;27787;44.594;11.046;2022-09-09T06:27:53;9.85;;;3.72;;
42124;SDS011;27787;44.594;11.046;2022-09-09T06:30:37;7.60;;;3.45;;
42124;SDS011;27787;44.594;11.046;2022-09-09T06:36:12;8.55;;;4.22;;
42124;SDS011;27787;44.594;11.046;2022-09-09T06:38:56;15.40;;;4.20;;
42124;SDS011;27787;44.594;11.046;2022-09-09T06:41:40;12.93;;;4.95;;
42124;SDS011;27787;44.594;11.046;2022-09-09T06:44:38;13.23;;;4.55;;
42124;SDS011;27787;44.594;11.046;2022-09-09T06:47:27;10.48;;;5.07;;
42124;SDS011;27787;44.594;11.046;2022-09-09T06:50:14;9.43;;;4.97;;
42124;SDS011;27787;44.594;11.046;2022-09-09T06:52:58;6.78;;;4.68;;
42124;SDS011;27787;44.594;11.046;2022-09-09T06:55:42;17.05;;;5.53;;
42124;SDS011;27787;44.594;11.046;2022-09-09T06:58:29;22.25;;;5.93;;
42124;SDS011;27787;44.594;11.046;2022-09-09T07:01:16;12.85;;;6.05;;
42124;SDS011;27787;44.594;11.046;2022-09-09T07:04:04;11.18;;;6.30;;
42124;SDS011;27787;44.594;11.046;2022-09-09T07:06:54;12.68;;;6.18;;
42124;SDS011;27787;44.594;11.046;2022-09-09T07:09:41;17.60;;;6.88;;
42124;SDS011;27787;44.594;11.046;2022-09-09T07:15:15;9.65;;;6.82;;
42124;SDS011;27787;44.594;11.046;2022-09-09T07:18:02;15.00;;;6.78;;
42124;SDS011;27787;44.594;11.046;2022-09-09T07:20:53;15.33;;;7.83;;
42124;SDS011;27787;44.594;11.046;2022-09-09T07:23:39;17.50;;;7.65;;
42124;SDS011;27787;44.594;11.046;2022-09-09T07:26:24;18.90;;;8.02;;
42124;SDS011;27787;44.594;11.046;2022-09-09T07:29:11;18.67;;;8.13;;
42124;SDS011;27787;44.594;11.046;2022-09-09T07:31:58;13.30;;;7.68;;
42124;SDS011;27787;44.594;11.046;2022-09-09T07:34:49;16.38;;;8.25;;
42124;SDS011;27787;44.594;11.046;2022-09-09T07:37:35;18.75;;;10.60;;
42124;SDS011;27787;44.594;11.046;2022-09-09T07:40:21;22.73;;;10.55;;
42124;SDS011;27787;44.594;11.046;2022-09-09T07:43:06;21.23;;;11.00;;
42124;SDS011;27787;44.594;11.046;2022-09-09T07:45:56;20.40;;;11.03;;
42124;SDS011;27787;44.594;11.046;2022-09-09T07:48:45;19.98;;;11.32;;
42124;SDS011;27787;44.594;11.046;2022-09-09T07:51:36;20.85;;;11.60;;
42124;SDS011;27787;44.594;11.046;2022-09-09T07:54:23;21.17;;;11.30;;
42124;SDS011;27787;44.594;11.046;2022-09-09T07:57:09;20.58;;;12.90;;
42124;SDS011;27787;44.594;11.046;2022-09-09T07:59:55;21.30;;;13.10;;
42124;SDS011;27787;44.594;11.046;2022-09-09T08:05:26;20.85;;;12.05;;
42124;SDS011;27787;44.594;11.046;2022-09-09T08:08:11;22.70;;;13.80;;
42124;SDS011;27787;44.594;11.046;2022-09-09T08:11:06;25.75;;;15.18;;
42124;SDS011;27787;44.594;11.046;2022-09-09T08:14:00;21.38;;;14.30;;
42124;SDS011;27787;44.594;11.046;2022-09-09T08:16:45;22.85;;;14.57;;
42124;SDS011;27787;44.594;11.046;2022-09-09T08:19:34;26.63;;;15.35;;
42124;SDS011;27787;44.594;11.046;2022-09-09T08:22:20;26.45;;;15.90;;
42124;SDS011;27787;44.594;11.046;2022-09-09T08:25:06;24.45;;;15.07;;
42124;SDS011;27787;44.594;11.046;2022-09-09T08:27:53;25.90;;;14.90;;
42124;SDS011;27787;44.594;11.046;2022-09-09T08:30:38;29.83;;;16.67;;
42124;SDS011;27787;44.594;11.046;2022-09-09T08:33:23;25.70;;;14.38;;
42124;SDS011;27787;44.594;11.046;2022-09-09T08:36:09;25.45;;;14.38;;
42124;SDS011;27787;44.594;11.046;2022-09-09T08:38:55;23.40;;;15.13;;
42124;SDS011;27787;44.594;11.046;2022-09-09T08:50:44;22.55;;;14.35;;
42124;SDS011;27787;44.594;11.046;2022-09-09T08:53:47;30.42;;;16.02;;
42124;SDS011;27787;44.594;11.046;2022-09-09T08:56:35;22.15;;;13.98;;
42124;SDS011;27787;44.594;11.046;2022-09-09T08:59:20;22.55;;;13.13;;
42124;SDS011;27787;44.594;11.046;2022-09-09T09:02:13;24.13;;;14.63;;
42124;SDS011;27787;44.594;11.046;2022-09-09T09:10:56;15.27;;;10.02;;
42124;SDS011;27787;44.594;11.046;2022-09-09T09:14:27;16.60;;;9.98;;
42124;SDS011;27787;44.594;11.046;2022-09-09T09:17:01;14.85;;;8.27;;
42124;SDS011;27787;44.594;11.046;2022-09-09T09:19:57;16.00;;;8.93;;
42124;SDS011;27787;44.594;11.046;2022-09-09T09:22:46;14.93;;;7.30;;
42124;SDS011;27787;44.594;11.046;2022-09-09T09:25:39;13.63;;;6.82;;
42124;SDS011;27787;44.594;11.046;2022-09-09T09:28:26;12.18;;;5.85;;
42124;SDS011;27787;44.594;11.046;2022-09-09T09:31:18;11.13;;;5.63;;
42124;SDS011;27787;44.594;11.046;2022-09-09T09:34:07;11.30;;;7.03;;
42124;SDS011;27787;44.594;11.046;2022-09-09T09:36:56;13.73;;;6.82;;
42124;SDS011;27787;44.594;11.046;2022-09-09T09:39:44;10.25;;;6.47;;
42124;SDS011;27787;44.594;11.046;2022-09-09T09:42:30;12.50;;;6.32;;
42124;SDS011;27787;44.594;11.046;2022-09-09T09:45:22;16.38;;;8.07;;
42124;SDS011;27787;44.594;11.046;2022-09-09T09:48:11;14.00;;;8.25;;
42124;SDS011;27787;44.594;11.046;2022-09-09T09:51:02;13.50;;;8.73;;
42124;SDS011;27787;44.594;11.046;2022-09-09T09:54:30;18.52;;;9.60;;
42124;SDS011;27787;44.594;11.046;2022-09-09T09:57:14;11.48;;;5.78;;
42124;SDS011;27787;44.594;11.046;2022-09-09T10:00:03;8.75;;;4.82;;
42124;SDS011;27787;44.594;11.046;2022-09-09T10:02:59;10.07;;;4.47;;
42124;SDS011;27787;44.594;11.046;2022-09-09T10:05:47;9.65;;;3.40;;
42124;SDS011;27787;44.594;11.046;2022-09-09T10:08:33;11.97;;;3.43;;
42124;SDS011;27787;44.594;11.046;2022-09-09T10:11:46;9.52;;;2.75;;
42124;SDS011;27787;44.594;11.046;2022-09-09T10:18:08;5.30;;;2.60;;
42124;SDS011;27787;44.594;11.046;2022-09-09T10:27:38;4.75;;;2.90;;
42124;SDS011;27787;44.594;11.046;2022-09-09T10:33:36;5.60;;;3.13;;
42124;SDS011;27787;44.594;11.046;2022-09-09T10:39:20;3.40;;;2.33;;
42124;SDS011;27787;44.594;11.046;2022-09-09T10:42:12;5.32;;;2.70;;
42124;SDS011;27787;44.594;11.046;2022-09-09T10:48:30;6.60;;;3.03;;
42124;SDS011;27787;44.594;11.046;2022-09-09T10:54:35;5.50;;;3.45;;
42124;SDS011;27787;44.594;11.046;2022-09-09T10:57:29;7.65;;;3.08;;
42124;SDS011;27787;44.594;11.046;2022-09-09T11:00:21;7.78;;;3.75;;
42124;SDS011;27787;44.594;11.046;2022-09-09T11:03:27;3.75;;;2.15;;
42124;SDS011;27787;44.594;11.046;2022-09-09T11:06:18;6.45;;;2.05;;
42124;SDS011;27787;44.594;11.046;2022-09-09T11:09:08;6.18;;;2.28;;
42124;SDS011;27787;44.594;11.046;2022-09-09T11:11:59;5.63;;;2.20;;
42124;SDS011;27787;44.594;11.046;2022-09-09T11:15:12;6.60;;;2.00;;
42124;SDS011;27787;44.594;11.046;2022-09-09T11:17:58;4.63;;;2.20;;
42124;SDS011;27787;44.594;11.046;2022-09-09T11:20:47;3.25;;;2.20;;
42124;SDS011;27787;44.594;11.046;2022-09-09T11:23:38;4.70;;;2.28;;
42124;SDS011;27787;44.594;11.046;2022-09-09T11:26:30;4.40;;;2.45;;
42124;SDS011;27787;44.594;11.046;2022-09-09T11:35:54;10.70;;;2.92;;
42124;SDS011;27787;44.594;11.046;2022-09-09T11:42:05;6.60;;;2.22;;
42124;SDS011;27787;44.594;11.046;2022-09-09T11:44:56;7.43;;;2.50;;
42124;SDS011;27787;44.594;11.046;2022-09-09T11:47:41;5.10;;;2.20;;
42124;SDS011;27787;44.594;11.046;2022-09-09T11:50:36;6.25;;;1.75;;
42124;SDS011;27787;44.594;11.046;2022-09-09T11:53:21;3.47;;;1.48;;
42124;SDS011;27787;44.594;11.046;2022-09-09T11:56:08;9.80;;;2.15;;
42124;SDS011;27787;44.594;11.046;2022-09-09T11:58:56;6.75;;;2.38;;
42124;SDS011;27787;44.594;11.046;2022-09-09T12:01:42;4.55;;;1.83;;
42124;SDS011;27787;44.594;11.046;2022-09-09T12:04:30;4.53;;;1.45;;
42124;SDS011;27787;44.594;11.046;2022-09-09T12:13:15;3.05;;;1.58;;
42124;SDS011;27787;44.594;11.046;2022-09-09T12:16:02;4.63;;;1.50;;
42124;SDS011;27787;44.594;11.046;2022-09-09T12:18:49;4.18;;;1.17;;
42124;SDS011;27787;44.594;11.046;2022-09-09T12:22:16;5.00;;;1.50;;
42124;SDS011;27787;44.594;11.046;2022-09-09T12:24:51;5.43;;;1.35;;
42124;SDS011;27787;44.594;11.046;2022-09-09T12:28:09;3.30;;;1.20;;
42124;SDS011;27787;44.594;11.046;2022-09-09T12:31:07;6.07;;;1.23;;
42124;SDS011;27787;44.594;11.046;2022-09-09T12:34:11;2.78;;;1.30;;
42124;SDS011;27787;44.594;11.046;2022-09-09T12:37:02;4.07;;;1.30;;
42124;SDS011;27787;44.594;11.046;2022-09-09T12:39:57;3.70;;;1.25;;
42124;SDS011;27787;44.594;11.046;2022-09-09T12:42:42;4.00;;;1.30;;
42124;SDS011;27787;44.594;11.046;2022-09-09T12:45:31;5.03;;;2.08;;
42124;SDS011;27787;44.594;11.046;2022-09-09T12:48:17;8.32;;;1.95;;
42124;SDS011;27787;44.594;11.046;2022-09-09T12:51:18;6.07;;;2.45;;
42124;SDS011;27787;44.594;11.046;2022-09-09T12:54:12;4.00;;;2.25;;
42124;SDS011;27787;44.594;11.046;2022-09-09T12:56:58;3.35;;;2.20;;
42124;SDS011;27787;44.594;11.046;2022-09-09T12:59:43;6.53;;;3.17;;
42124;SDS011;27787;44.594;11.046;2022-09-09T13:02:32;8.00;;;2.38;;
42124;SDS011;27787;44.594;11.046;2022-09-09T13:05:18;11.30;;;3.22;;
42124;SDS011;27787;44.594;11.046;2022-09-09T13:08:11;5.75;;;2.78;;
42124;SDS011;27787;44.594;11.046;2022-09-09T13:10:57;8.05;;;2.67;;
42124;SDS011;27787;44.594;11.046;2022-09-09T13:13:50;4.20;;;2.35;;
42124;SDS011;27787;44.594;11.046;2022-09-09T13:16:37;3.72;;;2.28;;
42124;SDS011;27787;44.594;11.046;2022-09-09T13:19:22;9.05;;;2.47;;
42124;SDS011;27787;44.594;11.046;2022-09-09T13:22:13;11.10;;;2.17;;
42124;SDS011;27787;44.594;11.046;2022-09-09T13:25:05;9.77;;;2.40;;
42124;SDS011;27787;44.594;11.046;2022-09-09T13:30:40;5.10;;;2.08;;
42124;SDS011;27787;44.594;11.046;2022-09-09T13:33:33;5.00;;;2.25;;
42124;SDS011;27787;44.594;11.046;2022-09-09T13:36:27;9.50;;;2.63;;
42124;SDS011;27787;44.594;11.046;2022-09-09T13:39:18;4.57;;;2.25;;
42124;SDS011;27787;44.594;11.046;2022-09-09T13:42:03;3.63;;;1.90;;
42124;SDS011;27787;44.594;11.046;2022-09-09T13:44:48;4.35;;;1.80;;
42124;SDS011;27787;44.594;11.046;2022-09-09T13:47:33;4.82;;;2.40;;
42124;SDS011;27787;44.594;11.046;2022-09-09T13:53:10;5.47;;;2.05;;
42124;SDS011;27787;44.594;11.046;2022-09-09T13:55:54;5.60;;;2.33;;
42124;SDS011;27787;44.594;11.046;2022-09-09T13:58:38;3.97;;;1.80;;
42124;SDS011;27787;44.594;11.046;2022-09-09T14:01:22;4.90;;;2.17;;
42124;SDS011;27787;44.594;11.046;2022-09-09T14:04:06;4.00;;;1.70;;
42124;SDS011;27787;44.594;11.046;2022-09-09T14:06:50;6.10;;;1.70;;
42124;SDS011;27787;44.594;11.046;2022-09-09T14:09:35;4.97;;;1.95;;
42124;SDS011;27787;44.594;11.046;2022-09-09T14:15:04;7.57;;;2.58;;
42124;SDS011;27787;44.594;11.046;2022-09-09T14:17:50;4.93;;;1.75;;
42124;SDS011;27787;44.594;11.046;2022-09-09T14:20:35;4.65;;;1.80;;
42124;SDS011;27787;44.594;11.046;2022-09-09T14:23:19;2.50;;;1.80;;
42124;SDS011;27787;44.594;11.046;2022-09-09T14:26:06;4.47;;;1.85;;
42124;SDS011;27787;44.594;11.046;2022-09-09T14:28:50;6.60;;;2.00;;
42124;SDS011;27787;44.594;11.046;2022-09-09T14:31:35;3.92;;;1.60;;
42124;SDS011;27787;44.594;11.046;2022-09-09T14:34:19;7.57;;;2.58;;
42124;SDS011;27787;44.594;11.046;2022-09-09T14:37:03;2.88;;;1.67;;
42124;SDS011;27787;44.594;11.046;2022-09-09T14:39:49;8.73;;;1.65;;
42124;SDS011;27787;44.594;11.046;2022-09-09T14:42:34;6.50;;;1.67;;
42124;SDS011;27787;44.594;11.046;2022-09-09T14:45:18;3.55;;;1.42;;
42124;SDS011;27787;44.594;11.046;2022-09-09T14:48:03;2.75;;;1.88;;
42124;SDS011;27787;44.594;11.046;2022-09-09T14:53:33;2.63;;;1.60;;
42124;SDS011;27787;44.594;11.046;2022-09-09T14:56:17;2.65;;;1.67;;
42124;SDS011;27787;44.594;11.046;2022-09-09T14:59:04;3.38;;;2.00;;
42124;SDS011;27787;44.594;11.046;2022-09-09T15:01:49;4.45;;;1.63;;
42124;SDS011;27787;44.594;11.046;2022-09-09T15:04:33;2.08;;;1.60;;
42124;SDS011;27787;44.594;11.046;2022-09-09T15:07:18;4.40;;;1.50;;
42124;SDS011;27787;44.594;11.046;2022-09-09T15:10:06;3.05;;;1.50;;
42124;SDS011;27787;44.594;11.046;2022-09-09T15:12:50;5.13;;;1.70;;
42124;SDS011;27787;44.594;11.046;2022-09-09T15:15:35;3.40;;;1.77;;
42124;SDS011;27787;44.594;11.046;2022-09-09T15:18:19;6.18;;;1.83;;
42124;SDS011;27787;44.594;11.046;2022-09-09T15:21:03;4.25;;;1.60;;
42124;SDS011;27787;44.594;11.046;2022-09-09T15:23:49;2.65;;;1.65;;
42124;SDS011;27787;44.594;11.046;2022-09-09T15:26:33;5.10;;;1.60;;
42124;SDS011;27787;44.594;11.046;2022-09-09T15:29:17;2.45;;;1.60;;
42124;SDS011;27787;44.594;11.046;2022-09-09T15:32:02;4.22;;;1.73;;
42124;SDS011;27787;44.594;11.046;2022-09-09T15:34:47;4.60;;;1.80;;
42124;SDS011;27787;44.594;11.046;2022-09-09T15:37:36;4.28;;;1.70;;
42124;SDS011;27787;44.594;11.046;2022-09-09T15:40:20;2.40;;;1.60;;
42124;SDS011;27787;44.594;11.046;2022-09-09T15:43:05;7.97;;;1.67;;
42124;SDS011;27787;44.594;11.046;2022-09-09T15:45:52;7.88;;;2.08;;
42124;SDS011;27787;44.594;11.046;2022-09-09T15:48:48;9.45;;;1.75;;
42124;SDS011;27787;44.594;11.046;2022-09-09T15:51:33;2.70;;;1.70;;
42124;SDS011;27787;44.594;11.046;2022-09-09T15:54:18;4.70;;;1.75;;
42124;SDS011;27787;44.594;11.046;2022-09-09T15:57:06;7.07;;;1.65;;
42124;SDS011;27787;44.594;11.046;2022-09-09T15:59:52;3.40;;;1.75;;
42124;SDS011;27787;44.594;11.046;2022-09-09T16:02:36;4.57;;;1.60;;
42124;SDS011;27787;44.594;11.046;2022-09-09T16:05:21;5.15;;;2.05;;
42124;SDS011;27787;44.594;11.046;2022-09-09T16:08:05;5.90;;;2.13;;
42124;SDS011;27787;44.594;11.046;2022-09-09T16:10:50;6.90;;;2.40;;
42124;SDS011;27787;44.594;11.046;2022-09-09T16:13:35;5.25;;;2.35;;
42124;SDS011;27787;44.594;11.046;2022-09-09T16:16:22;4.22;;;2.35;;
42124;SDS011;27787;44.594;11.046;2022-09-09T16:19:08;5.75;;;2.40;;
42124;SDS011;27787;44.594;11.046;2022-09-09T16:21:56;3.95;;;2.20;;
42124;SDS011;27787;44.594;11.046;2022-09-09T16:24:40;6.72;;;2.22;;
42124;SDS011;27787;44.594;11.046;2022-09-09T16:27:25;6.22;;;2.42;;
42124;SDS011;27787;44.594;11.046;2022-09-09T16:30:09;6.70;;;3.00;;
42124;SDS011;27787;44.594;11.046;2022-09-09T16:35:38;5.47;;;2.60;;
42124;SDS011;27787;44.594;11.046;2022-09-09T16:38:23;5.00;;;2.38;;
42124;SDS011;27787;44.594;11.046;2022-09-09T16:41:08;5.40;;;2.55;;
42124;SDS011;27787;44.594;11.046;2022-09-09T16:43:53;7.18;;;2.17;;
42124;SDS011;27787;44.594;11.046;2022-09-09T16:46:40;4.13;;;2.17;;
42124;SDS011;27787;44.594;11.046;2022-09-09T16:49:27;6.80;;;2.30;;
42124;SDS011;27787;44.594;11.046;2022-09-09T16:52:12;6.32;;;2.42;;
42124;SDS011;27787;44.594;11.046;2022-09-09T16:54:56;8.52;;;2.38;;
42124;SDS011;27787;44.594;11.046;2022-09-09T16:57:40;7.05;;;2.58;;
42124;SDS011;27787;44.594;11.046;2022-09-09T17:00:25;5.13;;;2.00;;
42124;SDS011;27787;44.594;11.046;2022-09-09T17:03:13;5.90;;;2.40;;
42124;SDS011;27787;44.594;11.046;2022-09-09T17:05:58;7.88;;;1.80;;
42124;SDS011;27787;44.594;11.046;2022-09-09T17:08:45;5.00;;;1.98;;
42124;SDS011;27787;44.594;11.046;2022-09-09T17:11:29;7.35;;;1.85;;
42124;SDS011;27787;44.594;11.046;2022-09-09T17:14:15;13.38;;;2.40;;
42124;SDS011;27787;44.594;11.046;2022-09-09T17:17:00;4.90;;;2.10;;
42124;SDS011;27787;44.594;11.046;2022-09-09T17:19:46;7.30;;;2.08;;
42124;SDS011;27787;44.594;11.046;2022-09-09T17:22:30;7.15;;;1.77;;
42124;SDS011;27787;44.594;11.046;2022-09-09T17:25:14;8.95;;;1.73;;
42124;SDS011;27787;44.594;11.046;2022-09-09T17:27:58;17.38;;;2.95;;
42124;SDS011;27787;44.594;11.046;2022-09-09T17:30:43;2.92;;;1.70;;
42124;SDS011;27787;44.594;11.046;2022-09-09T17:33:27;3.92;;;1.63;;
42124;SDS011;27787;44.594;11.046;2022-09-09T17:39:03;2.35;;;1.60;;
42124;SDS011;27787;44.594;11.046;2022-09-09T17:41:49;3.53;;;1.70;;
42124;SDS011;27787;44.594;11.046;2022-09-09T17:44:33;2.70;;;1.38;;
42124;SDS011;27787;44.594;11.046;2022-09-09T17:47:17;8.10;;;1.60;;
42124;SDS011;27787;44.594;11.046;2022-09-09T17:50:01;5.03;;;1.73;;
42124;SDS011;27787;44.594;11.046;2022-09-09T17:52:46;1.98;;;1.40;;
42124;SDS011;27787;44.594;11.046;2022-09-09T17:55:32;3.97;;;1.70;;
42124;SDS011;27787;44.594;11.046;2022-09-09T17:58:16;7.68;;;1.92;;
42124;SDS011;27787;44.594;11.046;2022-09-09T18:01:02;4.93;;;2.08;;
42124;SDS011;27787;44.594;11.046;2022-09-09T18:03:49;8.95;;;2.10;;
42124;SDS011;27787;44.594;11.046;2022-09-09T18:06:38;3.00;;;1.63;;
42124;SDS011;27787;44.594;11.046;2022-09-09T18:09:25;2.90;;;1.50;;
42124;SDS011;27787;44.594;11.046;2022-09-09T18:12:10;3.85;;;2.20;;
42124;SDS011;27787;44.594;11.046;2022-09-09T18:14:54;5.30;;;1.75;;
42124;SDS011;27787;44.594;11.046;2022-09-09T18:17:38;5.47;;;1.83;;
42124;SDS011;27787;44.594;11.046;2022-09-09T18:20:23;5.68;;;2.00;;
42124;SDS011;27787;44.594;11.046;2022-09-09T18:23:07;3.45;;;1.83;;
42124;SDS011;27787;44.594;11.046;2022-09-09T18:25:51;4.57;;;1.75;;
42124;SDS011;27787;44.594;11.046;2022-09-09T18:28:35;6.53;;;2.00;;
42124;SDS011;27787;44.594;11.046;2022-09-09T18:31:24;3.03;;;2.00;;
42124;SDS011;27787;44.594;11.046;2022-09-09T18:34:11;8.10;;;2.25;;
42124;SDS011;27787;44.594;11.046;2022-09-09T18:36:56;3.42;;;1.92;;
42124;SDS011;27787;44.594;11.046;2022-09-09T18:39:41;4.63;;;2.25;;
42124;SDS011;27787;44.594;11.046;2022-09-09T18:42:25;6.60;;;2.13;;
42124;SDS011;27787;44.594;11.046;2022-09-09T18:45:10;3.55;;;1.60;;
42124;SDS011;27787;44.594;11.046;2022-09-09T18:47:54;2.75;;;1.70;;
42124;SDS011;27787;44.594;11.046;2022-09-09T18:50:39;6.53;;;2.33;;
42124;SDS011;27787;44.594;11.046;2022-09-09T18:53:23;4.85;;;2.33;;
42124;SDS011;27787;44.594;11.046;2022-09-09T18:56:11;4.50;;;2.22;;
42124;SDS011;27787;44.594;11.046;2022-09-09T18:58:57;3.88;;;1.88;;